sensor_id;sensor_type;location;lat;lon;timestamp;P1;durP1;ratioP1;P2;durP2;ratioP2
10537;SDS011;5317;49.048;8.468;2022-12-31T00:00:06;1.10;;;1.00;;
10537;SDS011;5317;49.048;8.468;2022-12-31T00:02:35;1.03;;;1.03;;
10537;SDS011;5317;49.048;8.468;2022-12-31T00:05:02;1.17;;;1.07;;
10537;SDS011;5317;49.048;8.468;2022-12-31T00:07:32;1.73;;;1.00;;
10537;SDS011;5317;49.048;8.468;2022-12-31T00:10:00;0.90;;;0.90;;
10537;SDS011;5317;49.048;8.468;2022-12-31T00:12:30;0.73;;;0.73;;
10537;SDS011;5317;49.048;8.468;2022-12-31T00:14:57;0.93;;;0.93;;
10537;SDS011;5317;49.048;8.468;2022-12-31T00:17:24;0.90;;;0.90;;
10537;SDS011;5317;49.048;8.468;2022-12-31T00:19:52;1.53;;;0.90;;
10537;SDS011;5317;49.048;8.468;2022-12-31T00:22:19;1.07;;;0.90;;
10537;SDS011;5317;49.048;8.468;2022-12-31T00:24:46;0.60;;;0.60;;
10537;SDS011;5317;49.048;8.468;2022-12-31T00:27:13;1.40;;;0.77;;
10537;SDS011;5317;49.048;8.468;2022-12-31T00:29:41;0.70;;;0.70;;
10537;SDS011;5317;49.048;8.468;2022-12-31T00:32:08;1.00;;;0.97;;
10537;SDS011;5317;49.048;8.468;2022-12-31T00:34:35;0.80;;;0.80;;
10537;SDS011;5317;49.048;8.468;2022-12-31T00:37:03;1.37;;;0.80;;
10537;SDS011;5317;49.048;8.468;2022-12-31T00:39:30;1.40;;;0.90;;
10537;SDS011;5317;49.048;8.468;2022-12-31T00:41:57;0.60;;;0.60;;
10537;SDS011;5317;49.048;8.468;2022-12-31T00:44:24;1.00;;;1.00;;
10537;SDS011;5317;49.048;8.468;2022-12-31T00:46:52;1.20;;;1.10;;
10537;SDS011;5317;49.048;8.468;2022-12-31T00:49:19;0.80;;;0.80;;
10537;SDS011;5317;49.048;8.468;2022-12-31T00:51:45;0.80;;;0.80;;
10537;SDS011;5317;49.048;8.468;2022-12-31T00:54:14;0.80;;;0.80;;
10537;SDS011;5317;49.048;8.468;2022-12-31T00:56:41;0.77;;;0.77;;
10537;SDS011;5317;49.048;8.468;2022-12-31T00:59:08;0.93;;;0.93;;
10537;SDS011;5317;49.048;8.468;2022-12-31T01:01:36;2.03;;;0.90;;
10537;SDS011;5317;49.048;8.468;2022-12-31T01:04:05;1.07;;;1.00;;
10537;SDS011;5317;49.048;8.468;2022-12-31T01:06:34;0.90;;;0.90;;
10537;SDS011;5317;49.048;8.468;2022-12-31T01:09:01;1.73;;;1.00;;
10537;SDS011;5317;49.048;8.468;2022-12-31T01:11:30;0.90;;;0.90;;
10537;SDS011;5317;49.048;8.468;2022-12-31T01:13:58;1.60;;;1.00;;
10537;SDS011;5317;49.048;8.468;2022-12-31T01:16:28;1.00;;;1.00;;
10537;SDS011;5317;49.048;8.468;2022-12-31T01:18:56;1.10;;;1.10;;
10537;SDS011;5317;49.048;8.468;2022-12-31T01:21:26;1.00;;;0.97;;
10537;SDS011;5317;49.048;8.468;2022-12-31T01:23:53;2.87;;;1.30;;
10537;SDS011;5317;49.048;8.468;2022-12-31T01:26:20;1.07;;;0.97;;
10537;SDS011;5317;49.048;8.468;2022-12-31T01:28:50;2.10;;;1.30;;
10537;SDS011;5317;49.048;8.468;2022-12-31T01:31:18;1.00;;;0.97;;
10537;SDS011;5317;49.048;8.468;2022-12-31T01:33:46;1.07;;;0.97;;
10537;SDS011;5317;49.048;8.468;2022-12-31T01:36:14;1.00;;;1.00;;
10537;SDS011;5317;49.048;8.468;2022-12-31T01:38:42;1.17;;;1.03;;
10537;SDS011;5317;49.048;8.468;2022-12-31T01:41:11;0.97;;;0.97;;
10537;SDS011;5317;49.048;8.468;2022-12-31T01:43:41;0.80;;;0.80;;
10537;SDS011;5317;49.048;8.468;2022-12-31T01:46:13;0.87;;;0.80;;
10537;SDS011;5317;49.048;8.468;2022-12-31T01:48:44;3.23;;;0.90;;
10537;SDS011;5317;49.048;8.468;2022-12-31T01:51:15;0.90;;;0.90;;
10537;SDS011;5317;49.048;8.468;2022-12-31T01:53:42;1.87;;;1.00;;
10537;SDS011;5317;49.048;8.468;2022-12-31T01:56:12;0.93;;;0.90;;
10537;SDS011;5317;49.048;8.468;2022-12-31T01:58:41;1.30;;;0.90;;
10537;SDS011;5317;49.048;8.468;2022-12-31T02:01:12;1.43;;;0.97;;
10537;SDS011;5317;49.048;8.468;2022-12-31T02:03:45;1.00;;;1.00;;
10537;SDS011;5317;49.048;8.468;2022-12-31T02:06:15;1.03;;;0.93;;
10537;SDS011;5317;49.048;8.468;2022-12-31T02:08:45;0.70;;;0.70;;
10537;SDS011;5317;49.048;8.468;2022-12-31T02:14:01;1.00;;;0.93;;
10537;SDS011;5317;49.048;8.468;2022-12-31T02:16:33;3.00;;;1.00;;
10537;SDS011;5317;49.048;8.468;2022-12-31T02:19:08;1.30;;;1.10;;
10537;SDS011;5317;49.048;8.468;2022-12-31T02:21:55;1.43;;;1.00;;
10537;SDS011;5317;49.048;8.468;2022-12-31T02:24:42;2.63;;;1.13;;
10537;SDS011;5317;49.048;8.468;2022-12-31T02:27:27;1.07;;;1.00;;
10537;SDS011;5317;49.048;8.468;2022-12-31T02:30:08;1.00;;;0.80;;
10537;SDS011;5317;49.048;8.468;2022-12-31T02:32:41;1.60;;;1.10;;
10537;SDS011;5317;49.048;8.468;2022-12-31T02:35:19;0.80;;;0.77;;
10537;SDS011;5317;49.048;8.468;2022-12-31T02:37:52;1.40;;;1.20;;
10537;SDS011;5317;49.048;8.468;2022-12-31T02:40:23;0.73;;;0.73;;
10537;SDS011;5317;49.048;8.468;2022-12-31T02:42:51;1.57;;;0.90;;
10537;SDS011;5317;49.048;8.468;2022-12-31T02:45:22;0.93;;;0.90;;
10537;SDS011;5317;49.048;8.468;2022-12-31T02:48:01;1.37;;;0.80;;
10537;SDS011;5317;49.048;8.468;2022-12-31T02:50:41;1.73;;;0.70;;
10537;SDS011;5317;49.048;8.468;2022-12-31T02:53:25;0.90;;;0.90;;
10537;SDS011;5317;49.048;8.468;2022-12-31T02:56:07;1.67;;;1.00;;
10537;SDS011;5317;49.048;8.468;2022-12-31T02:58:41;0.80;;;0.80;;
10537;SDS011;5317;49.048;8.468;2022-12-31T03:01:34;1.00;;;1.00;;
10537;SDS011;5317;49.048;8.468;2022-12-31T03:04:22;1.40;;;1.20;;
10537;SDS011;5317;49.048;8.468;2022-12-31T03:07:01;1.13;;;1.03;;
10537;SDS011;5317;49.048;8.468;2022-12-31T03:09:30;1.53;;;1.20;;
10537;SDS011;5317;49.048;8.468;2022-12-31T03:11:57;2.10;;;1.10;;
10537;SDS011;5317;49.048;8.468;2022-12-31T03:14:42;0.80;;;0.80;;
10537;SDS011;5317;49.048;8.468;2022-12-31T03:17:11;1.23;;;0.90;;
10537;SDS011;5317;49.048;8.468;2022-12-31T03:19:38;1.70;;;0.80;;
10537;SDS011;5317;49.048;8.468;2022-12-31T03:22:22;0.87;;;0.70;;
10537;SDS011;5317;49.048;8.468;2022-12-31T03:24:53;0.93;;;0.83;;
10537;SDS011;5317;49.048;8.468;2022-12-31T03:27:38;1.07;;;1.00;;
10537;SDS011;5317;49.048;8.468;2022-12-31T03:30:08;0.83;;;0.83;;
10537;SDS011;5317;49.048;8.468;2022-12-31T03:32:38;0.90;;;0.83;;
10537;SDS011;5317;49.048;8.468;2022-12-31T03:35:05;1.40;;;1.00;;
10537;SDS011;5317;49.048;8.468;2022-12-31T03:37:33;1.17;;;0.93;;
10537;SDS011;5317;49.048;8.468;2022-12-31T03:40:00;1.20;;;0.73;;
10537;SDS011;5317;49.048;8.468;2022-12-31T03:42:27;2.57;;;0.87;;
10537;SDS011;5317;49.048;8.468;2022-12-31T03:44:54;0.70;;;0.70;;
10537;SDS011;5317;49.048;8.468;2022-12-31T03:47:21;0.60;;;0.60;;
10537;SDS011;5317;49.048;8.468;2022-12-31T03:49:50;0.63;;;0.60;;
10537;SDS011;5317;49.048;8.468;2022-12-31T03:52:19;1.17;;;1.10;;
10537;SDS011;5317;49.048;8.468;2022-12-31T03:54:47;1.23;;;0.80;;
10537;SDS011;5317;49.048;8.468;2022-12-31T03:57:15;0.70;;;0.70;;
10537;SDS011;5317;49.048;8.468;2022-12-31T03:59:42;1.20;;;0.90;;
10537;SDS011;5317;49.048;8.468;2022-12-31T04:02:09;0.60;;;0.60;;
10537;SDS011;5317;49.048;8.468;2022-12-31T04:04:37;0.83;;;0.80;;
10537;SDS011;5317;49.048;8.468;2022-12-31T04:07:05;1.03;;;0.77;;
10537;SDS011;5317;49.048;8.468;2022-12-31T04:09:32;1.07;;;0.80;;
10537;SDS011;5317;49.048;8.468;2022-12-31T04:11:59;0.90;;;0.80;;
10537;SDS011;5317;49.048;8.468;2022-12-31T04:14:26;1.30;;;0.80;;
10537;SDS011;5317;49.048;8.468;2022-12-31T04:16:53;0.77;;;0.70;;
10537;SDS011;5317;49.048;8.468;2022-12-31T04:19:20;1.00;;;0.70;;
10537;SDS011;5317;49.048;8.468;2022-12-31T04:21:47;1.00;;;0.90;;
10537;SDS011;5317;49.048;8.468;2022-12-31T04:24:16;1.33;;;0.90;;
10537;SDS011;5317;49.048;8.468;2022-12-31T04:26:43;1.67;;;0.90;;
10537;SDS011;5317;49.048;8.468;2022-12-31T04:29:12;2.50;;;0.90;;
10537;SDS011;5317;49.048;8.468;2022-12-31T04:31:42;0.77;;;0.77;;
10537;SDS011;5317;49.048;8.468;2022-12-31T04:34:09;1.47;;;1.10;;
10537;SDS011;5317;49.048;8.468;2022-12-31T04:36:37;1.03;;;1.00;;
10537;SDS011;5317;49.048;8.468;2022-12-31T04:39:04;1.77;;;0.90;;
10537;SDS011;5317;49.048;8.468;2022-12-31T04:41:32;1.10;;;0.77;;
10537;SDS011;5317;49.048;8.468;2022-12-31T04:44:00;0.83;;;0.83;;
10537;SDS011;5317;49.048;8.468;2022-12-31T04:46:28;0.80;;;0.80;;
10537;SDS011;5317;49.048;8.468;2022-12-31T04:48:56;0.90;;;0.90;;
10537;SDS011;5317;49.048;8.468;2022-12-31T04:51:24;2.10;;;0.90;;
10537;SDS011;5317;49.048;8.468;2022-12-31T04:53:53;1.27;;;0.90;;
10537;SDS011;5317;49.048;8.468;2022-12-31T04:56:20;1.13;;;0.93;;
10537;SDS011;5317;49.048;8.468;2022-12-31T04:58:48;1.40;;;1.10;;
10537;SDS011;5317;49.048;8.468;2022-12-31T05:01:16;1.13;;;1.03;;
10537;SDS011;5317;49.048;8.468;2022-12-31T05:03:43;0.90;;;0.90;;
10537;SDS011;5317;49.048;8.468;2022-12-31T05:06:11;1.23;;;0.90;;
10537;SDS011;5317;49.048;8.468;2022-12-31T05:08:42;0.83;;;0.83;;
10537;SDS011;5317;49.048;8.468;2022-12-31T05:11:11;1.27;;;1.07;;
10537;SDS011;5317;49.048;8.468;2022-12-31T05:13:38;1.30;;;1.20;;
10537;SDS011;5317;49.048;8.468;2022-12-31T05:16:07;2.33;;;1.13;;
10537;SDS011;5317;49.048;8.468;2022-12-31T05:18:34;0.90;;;0.90;;
10537;SDS011;5317;49.048;8.468;2022-12-31T05:21:02;1.57;;;0.97;;
10537;SDS011;5317;49.048;8.468;2022-12-31T05:23:31;0.77;;;0.77;;
10537;SDS011;5317;49.048;8.468;2022-12-31T05:26:02;1.27;;;0.90;;
10537;SDS011;5317;49.048;8.468;2022-12-31T05:28:32;2.13;;;1.00;;
10537;SDS011;5317;49.048;8.468;2022-12-31T05:30:59;1.00;;;0.90;;
10537;SDS011;5317;49.048;8.468;2022-12-31T05:33:28;0.70;;;0.70;;
10537;SDS011;5317;49.048;8.468;2022-12-31T05:35:54;0.57;;;0.57;;
10537;SDS011;5317;49.048;8.468;2022-12-31T05:38:22;0.97;;;0.77;;
10537;SDS011;5317;49.048;8.468;2022-12-31T05:40:57;1.37;;;0.67;;
10537;SDS011;5317;49.048;8.468;2022-12-31T05:43:25;0.70;;;0.70;;
10537;SDS011;5317;49.048;8.468;2022-12-31T05:45:52;0.83;;;0.83;;
10537;SDS011;5317;49.048;8.468;2022-12-31T05:48:19;1.70;;;0.83;;
10537;SDS011;5317;49.048;8.468;2022-12-31T05:50:48;0.70;;;0.70;;
10537;SDS011;5317;49.048;8.468;2022-12-31T05:53:15;1.70;;;0.90;;
10537;SDS011;5317;49.048;8.468;2022-12-31T05:55:43;1.20;;;1.00;;
10537;SDS011;5317;49.048;8.468;2022-12-31T05:58:11;1.00;;;1.00;;
10537;SDS011;5317;49.048;8.468;2022-12-31T06:00:38;1.13;;;0.87;;
10537;SDS011;5317;49.048;8.468;2022-12-31T06:03:05;1.63;;;0.90;;
10537;SDS011;5317;49.048;8.468;2022-12-31T06:05:33;1.13;;;0.90;;
10537;SDS011;5317;49.048;8.468;2022-12-31T06:08:01;1.03;;;1.00;;
10537;SDS011;5317;49.048;8.468;2022-12-31T06:10:28;1.03;;;0.93;;
10537;SDS011;5317;49.048;8.468;2022-12-31T06:12:55;0.97;;;0.90;;
10537;SDS011;5317;49.048;8.468;2022-12-31T06:15:22;0.83;;;0.80;;
10537;SDS011;5317;49.048;8.468;2022-12-31T06:17:49;0.77;;;0.77;;
10537;SDS011;5317;49.048;8.468;2022-12-31T06:20:16;1.00;;;0.80;;
10537;SDS011;5317;49.048;8.468;2022-12-31T06:22:43;1.10;;;1.10;;
10537;SDS011;5317;49.048;8.468;2022-12-31T06:25:12;0.90;;;0.90;;
10537;SDS011;5317;49.048;8.468;2022-12-31T06:27:39;1.13;;;1.03;;
10537;SDS011;5317;49.048;8.468;2022-12-31T06:30:07;0.77;;;0.77;;
10537;SDS011;5317;49.048;8.468;2022-12-31T06:32:35;3.60;;;0.70;;
10537;SDS011;5317;49.048;8.468;2022-12-31T06:35:03;0.93;;;0.70;;
10537;SDS011;5317;49.048;8.468;2022-12-31T06:37:31;1.33;;;1.23;;
10537;SDS011;5317;49.048;8.468;2022-12-31T06:39:58;0.73;;;0.73;;
10537;SDS011;5317;49.048;8.468;2022-12-31T06:42:28;1.77;;;1.20;;
10537;SDS011;5317;49.048;8.468;2022-12-31T06:44:56;1.00;;;1.00;;
10537;SDS011;5317;49.048;8.468;2022-12-31T06:47:23;0.90;;;0.90;;
10537;SDS011;5317;49.048;8.468;2022-12-31T06:49:51;1.00;;;0.90;;
10537;SDS011;5317;49.048;8.468;2022-12-31T06:52:18;0.73;;;0.73;;
10537;SDS011;5317;49.048;8.468;2022-12-31T06:54:45;0.80;;;0.80;;
10537;SDS011;5317;49.048;8.468;2022-12-31T06:57:13;1.33;;;1.10;;
10537;SDS011;5317;49.048;8.468;2022-12-31T06:59:42;1.90;;;0.90;;
10537;SDS011;5317;49.048;8.468;2022-12-31T07:02:13;0.80;;;0.80;;
10537;SDS011;5317;49.048;8.468;2022-12-31T07:05:03;2.23;;;1.20;;
10537;SDS011;5317;49.048;8.468;2022-12-31T07:07:54;1.20;;;0.97;;
10537;SDS011;5317;49.048;8.468;2022-12-31T07:10:33;1.27;;;1.00;;
10537;SDS011;5317;49.048;8.468;2022-12-31T07:13:17;1.73;;;0.80;;
10537;SDS011;5317;49.048;8.468;2022-12-31T07:16:08;1.00;;;0.90;;
10537;SDS011;5317;49.048;8.468;2022-12-31T07:18:49;1.97;;;1.10;;
10537;SDS011;5317;49.048;8.468;2022-12-31T07:21:21;0.73;;;0.70;;
10537;SDS011;5317;49.048;8.468;2022-12-31T07:23:56;1.00;;;0.90;;
10537;SDS011;5317;49.048;8.468;2022-12-31T07:26:24;0.80;;;0.80;;
10537;SDS011;5317;49.048;8.468;2022-12-31T07:29:13;1.07;;;1.03;;
10537;SDS011;5317;49.048;8.468;2022-12-31T07:31:54;2.40;;;1.10;;
10537;SDS011;5317;49.048;8.468;2022-12-31T07:34:30;1.17;;;0.90;;
10537;SDS011;5317;49.048;8.468;2022-12-31T07:37:06;1.60;;;1.07;;
10537;SDS011;5317;49.048;8.468;2022-12-31T07:39:42;1.37;;;0.90;;
10537;SDS011;5317;49.048;8.468;2022-12-31T07:42:27;1.07;;;1.00;;
10537;SDS011;5317;49.048;8.468;2022-12-31T07:45:06;0.77;;;0.77;;
10537;SDS011;5317;49.048;8.468;2022-12-31T07:47:41;0.70;;;0.70;;
10537;SDS011;5317;49.048;8.468;2022-12-31T07:50:11;1.90;;;0.80;;
10537;SDS011;5317;49.048;8.468;2022-12-31T07:52:40;1.70;;;0.90;;
10537;SDS011;5317;49.048;8.468;2022-12-31T07:55:08;1.57;;;1.00;;
10537;SDS011;5317;49.048;8.468;2022-12-31T07:57:37;1.70;;;0.90;;
10537;SDS011;5317;49.048;8.468;2022-12-31T08:00:13;0.80;;;0.80;;
10537;SDS011;5317;49.048;8.468;2022-12-31T08:02:56;1.10;;;0.90;;
10537;SDS011;5317;49.048;8.468;2022-12-31T08:05:31;1.60;;;1.20;;
10537;SDS011;5317;49.048;8.468;2022-12-31T08:08:10;0.90;;;0.90;;
10537;SDS011;5317;49.048;8.468;2022-12-31T08:10:53;0.80;;;0.80;;
10537;SDS011;5317;49.048;8.468;2022-12-31T08:13:31;1.70;;;1.30;;
10537;SDS011;5317;49.048;8.468;2022-12-31T08:15:59;1.60;;;1.00;;
10537;SDS011;5317;49.048;8.468;2022-12-31T08:18:29;0.80;;;0.80;;
10537;SDS011;5317;49.048;8.468;2022-12-31T08:20:58;1.30;;;1.00;;
10537;SDS011;5317;49.048;8.468;2022-12-31T08:23:31;1.17;;;0.80;;
10537;SDS011;5317;49.048;8.468;2022-12-31T08:26:10;1.77;;;1.10;;
10537;SDS011;5317;49.048;8.468;2022-12-31T08:28:50;1.17;;;1.00;;
10537;SDS011;5317;49.048;8.468;2022-12-31T08:31:28;2.13;;;0.90;;
10537;SDS011;5317;49.048;8.468;2022-12-31T08:34:06;1.33;;;0.83;;
10537;SDS011;5317;49.048;8.468;2022-12-31T08:36:40;0.80;;;0.80;;
10537;SDS011;5317;49.048;8.468;2022-12-31T08:39:17;2.40;;;0.80;;
10537;SDS011;5317;49.048;8.468;2022-12-31T08:41:53;1.80;;;0.90;;
10537;SDS011;5317;49.048;8.468;2022-12-31T08:44:24;1.30;;;1.20;;
10537;SDS011;5317;49.048;8.468;2022-12-31T08:47:01;1.13;;;1.03;;
10537;SDS011;5317;49.048;8.468;2022-12-31T08:49:38;1.53;;;1.10;;
10537;SDS011;5317;49.048;8.468;2022-12-31T08:52:08;1.53;;;1.03;;
10537;SDS011;5317;49.048;8.468;2022-12-31T08:54:40;1.43;;;0.90;;
10537;SDS011;5317;49.048;8.468;2022-12-31T08:57:09;1.97;;;1.20;;
10537;SDS011;5317;49.048;8.468;2022-12-31T08:59:42;1.73;;;0.90;;
10537;SDS011;5317;49.048;8.468;2022-12-31T09:02:25;0.80;;;0.80;;
10537;SDS011;5317;49.048;8.468;2022-12-31T09:05:18;1.03;;;0.97;;
10537;SDS011;5317;49.048;8.468;2022-12-31T09:07:51;1.53;;;1.27;;
10537;SDS011;5317;49.048;8.468;2022-12-31T09:10:30;0.83;;;0.83;;
10537;SDS011;5317;49.048;8.468;2022-12-31T09:13:02;0.97;;;0.70;;
10537;SDS011;5317;49.048;8.468;2022-12-31T09:15:38;1.07;;;0.97;;
10537;SDS011;5317;49.048;8.468;2022-12-31T09:18:08;1.37;;;1.00;;
10537;SDS011;5317;49.048;8.468;2022-12-31T09:20:39;1.10;;;1.00;;
10537;SDS011;5317;49.048;8.468;2022-12-31T09:23:06;1.20;;;0.90;;
10537;SDS011;5317;49.048;8.468;2022-12-31T09:25:33;1.17;;;0.90;;
10537;SDS011;5317;49.048;8.468;2022-12-31T09:28:10;2.70;;;1.17;;
10537;SDS011;5317;49.048;8.468;2022-12-31T09:30:43;1.70;;;1.00;;
10537;SDS011;5317;49.048;8.468;2022-12-31T09:33:16;1.10;;;0.80;;
10537;SDS011;5317;49.048;8.468;2022-12-31T09:35:58;1.20;;;1.10;;
10537;SDS011;5317;49.048;8.468;2022-12-31T09:38:36;1.67;;;1.20;;
10537;SDS011;5317;49.048;8.468;2022-12-31T09:41:12;0.70;;;0.70;;
10537;SDS011;5317;49.048;8.468;2022-12-31T09:50:04;0.70;;;0.70;;
10537;SDS011;5317;49.048;8.468;2022-12-31T09:53:00;1.30;;;0.70;;
10537;SDS011;5317;49.048;8.468;2022-12-31T09:55:40;2.23;;;0.90;;
10537;SDS011;5317;49.048;8.468;2022-12-31T09:58:21;2.23;;;1.00;;
10537;SDS011;5317;49.048;8.468;2022-12-31T10:01:09;1.93;;;1.10;;
10537;SDS011;5317;49.048;8.468;2022-12-31T10:03:50;1.53;;;1.20;;
10537;SDS011;5317;49.048;8.468;2022-12-31T10:06:40;1.33;;;1.10;;
10537;SDS011;5317;49.048;8.468;2022-12-31T10:15:35;1.13;;;1.03;;
10537;SDS011;5317;49.048;8.468;2022-12-31T10:18:28;1.10;;;1.10;;
10537;SDS011;5317;49.048;8.468;2022-12-31T10:21:18;2.03;;;0.93;;
10537;SDS011;5317;49.048;8.468;2022-12-31T10:24:06;1.37;;;1.00;;
10537;SDS011;5317;49.048;8.468;2022-12-31T10:26:59;0.87;;;0.87;;
10537;SDS011;5317;49.048;8.468;2022-12-31T10:29:42;1.10;;;0.97;;
10537;SDS011;5317;49.048;8.468;2022-12-31T10:32:16;0.87;;;0.87;;
10537;SDS011;5317;49.048;8.468;2022-12-31T10:34:49;1.80;;;1.10;;
10537;SDS011;5317;49.048;8.468;2022-12-31T10:37:23;1.07;;;0.97;;
10537;SDS011;5317;49.048;8.468;2022-12-31T10:39:58;1.63;;;1.07;;
10537;SDS011;5317;49.048;8.468;2022-12-31T10:42:45;1.07;;;0.90;;
10537;SDS011;5317;49.048;8.468;2022-12-31T10:45:43;1.97;;;0.80;;
10537;SDS011;5317;49.048;8.468;2022-12-31T10:52:18;0.90;;;0.90;;
10537;SDS011;5317;49.048;8.468;2022-12-31T11:01:08;0.87;;;0.77;;
10537;SDS011;5317;49.048;8.468;2022-12-31T11:06:54;1.00;;;0.93;;
10537;SDS011;5317;49.048;8.468;2022-12-31T11:12:56;1.03;;;0.93;;
10537;SDS011;5317;49.048;8.468;2022-12-31T11:15:48;0.90;;;0.80;;
10537;SDS011;5317;49.048;8.468;2022-12-31T11:18:36;1.40;;;0.97;;
10537;SDS011;5317;49.048;8.468;2022-12-31T11:21:17;1.63;;;0.90;;
10537;SDS011;5317;49.048;8.468;2022-12-31T11:23:52;0.80;;;0.80;;
10537;SDS011;5317;49.048;8.468;2022-12-31T11:26:32;2.63;;;1.03;;
10537;SDS011;5317;49.048;8.468;2022-12-31T11:29:13;0.70;;;0.70;;
10537;SDS011;5317;49.048;8.468;2022-12-31T11:32:03;0.73;;;0.73;;
10537;SDS011;5317;49.048;8.468;2022-12-31T11:37:35;1.23;;;0.70;;
10537;SDS011;5317;49.048;8.468;2022-12-31T11:43:22;0.73;;;0.73;;
10537;SDS011;5317;49.048;8.468;2022-12-31T11:46:01;1.47;;;1.37;;
10537;SDS011;5317;49.048;8.468;2022-12-31T11:48:53;1.73;;;0.90;;
10537;SDS011;5317;49.048;8.468;2022-12-31T11:51:48;0.70;;;0.70;;
10537;SDS011;5317;49.048;8.468;2022-12-31T11:54:35;1.57;;;0.93;;
10537;SDS011;5317;49.048;8.468;2022-12-31T11:57:13;1.20;;;1.10;;
10537;SDS011;5317;49.048;8.468;2022-12-31T11:59:46;1.53;;;0.90;;
10537;SDS011;5317;49.048;8.468;2022-12-31T12:02:20;1.10;;;1.00;;
10537;SDS011;5317;49.048;8.468;2022-12-31T12:04:52;0.80;;;0.80;;
10537;SDS011;5317;49.048;8.468;2022-12-31T12:07:22;1.03;;;0.93;;
10537;SDS011;5317;49.048;8.468;2022-12-31T12:09:49;1.30;;;1.17;;
10537;SDS011;5317;49.048;8.468;2022-12-31T12:12:20;1.00;;;0.90;;
10537;SDS011;5317;49.048;8.468;2022-12-31T12:14:49;0.77;;;0.60;;
10537;SDS011;5317;49.048;8.468;2022-12-31T12:17:21;1.10;;;0.87;;
10537;SDS011;5317;49.048;8.468;2022-12-31T12:19:59;0.87;;;0.77;;
10537;SDS011;5317;49.048;8.468;2022-12-31T12:22:27;1.10;;;0.70;;
10537;SDS011;5317;49.048;8.468;2022-12-31T12:25:00;0.63;;;0.63;;
10537;SDS011;5317;49.048;8.468;2022-12-31T12:27:30;1.47;;;0.70;;
10537;SDS011;5317;49.048;8.468;2022-12-31T12:30:06;2.17;;;0.77;;
10537;SDS011;5317;49.048;8.468;2022-12-31T12:32:34;0.67;;;0.60;;
10537;SDS011;5317;49.048;8.468;2022-12-31T12:35:13;1.80;;;0.90;;
10537;SDS011;5317;49.048;8.468;2022-12-31T12:37:41;1.43;;;0.70;;
10537;SDS011;5317;49.048;8.468;2022-12-31T12:40:17;1.20;;;0.80;;
10537;SDS011;5317;49.048;8.468;2022-12-31T12:42:45;1.63;;;0.97;;
10537;SDS011;5317;49.048;8.468;2022-12-31T12:45:14;1.70;;;0.87;;
10537;SDS011;5317;49.048;8.468;2022-12-31T12:47:43;0.57;;;0.57;;
10537;SDS011;5317;49.048;8.468;2022-12-31T12:50:13;0.97;;;0.87;;
10537;SDS011;5317;49.048;8.468;2022-12-31T12:52:49;1.73;;;0.73;;
10537;SDS011;5317;49.048;8.468;2022-12-31T12:55:30;1.13;;;0.87;;
10537;SDS011;5317;49.048;8.468;2022-12-31T12:58:06;0.77;;;0.70;;
10537;SDS011;5317;49.048;8.468;2022-12-31T13:00:46;1.30;;;0.77;;
10537;SDS011;5317;49.048;8.468;2022-12-31T13:06:27;1.00;;;1.00;;
10537;SDS011;5317;49.048;8.468;2022-12-31T13:09:05;0.77;;;0.77;;
10537;SDS011;5317;49.048;8.468;2022-12-31T13:11:46;0.77;;;0.70;;
10537;SDS011;5317;49.048;8.468;2022-12-31T13:14:22;0.60;;;0.60;;
10537;SDS011;5317;49.048;8.468;2022-12-31T13:16:58;1.80;;;0.60;;
10537;SDS011;5317;49.048;8.468;2022-12-31T13:19:34;1.20;;;1.10;;
10537;SDS011;5317;49.048;8.468;2022-12-31T13:22:09;0.60;;;0.60;;
10537;SDS011;5317;49.048;8.468;2022-12-31T13:24:47;1.03;;;0.93;;
10537;SDS011;5317;49.048;8.468;2022-12-31T13:27:22;1.10;;;1.00;;
10537;SDS011;5317;49.048;8.468;2022-12-31T13:29:54;1.30;;;1.00;;
10537;SDS011;5317;49.048;8.468;2022-12-31T13:32:26;0.90;;;0.80;;
10537;SDS011;5317;49.048;8.468;2022-12-31T13:35:06;1.00;;;0.90;;
10537;SDS011;5317;49.048;8.468;2022-12-31T13:37:48;1.03;;;0.77;;
10537;SDS011;5317;49.048;8.468;2022-12-31T13:40:20;0.90;;;0.90;;
10537;SDS011;5317;49.048;8.468;2022-12-31T13:42:54;1.70;;;1.07;;
10537;SDS011;5317;49.048;8.468;2022-12-31T13:45:26;0.80;;;0.80;;
10537;SDS011;5317;49.048;8.468;2022-12-31T13:47:58;1.17;;;1.07;;
10537;SDS011;5317;49.048;8.468;2022-12-31T13:50:31;0.83;;;0.80;;
10537;SDS011;5317;49.048;8.468;2022-12-31T13:53:04;0.93;;;0.70;;
10537;SDS011;5317;49.048;8.468;2022-12-31T13:55:40;1.20;;;1.00;;
10537;SDS011;5317;49.048;8.468;2022-12-31T13:58:13;2.30;;;0.80;;
10537;SDS011;5317;49.048;8.468;2022-12-31T14:00:49;0.97;;;0.80;;
10537;SDS011;5317;49.048;8.468;2022-12-31T14:03:23;1.17;;;0.93;;
10537;SDS011;5317;49.048;8.468;2022-12-31T14:06:04;0.80;;;0.80;;
10537;SDS011;5317;49.048;8.468;2022-12-31T14:08:37;1.57;;;0.80;;
10537;SDS011;5317;49.048;8.468;2022-12-31T14:11:06;1.67;;;1.00;;
10537;SDS011;5317;49.048;8.468;2022-12-31T14:13:46;0.80;;;0.80;;
10537;SDS011;5317;49.048;8.468;2022-12-31T14:16:31;0.70;;;0.70;;
10537;SDS011;5317;49.048;8.468;2022-12-31T14:19:10;1.50;;;1.30;;
10537;SDS011;5317;49.048;8.468;2022-12-31T14:21:48;2.57;;;1.20;;
10537;SDS011;5317;49.048;8.468;2022-12-31T14:24:24;1.40;;;1.30;;
10537;SDS011;5317;49.048;8.468;2022-12-31T14:27:02;2.47;;;0.97;;
10537;SDS011;5317;49.048;8.468;2022-12-31T14:29:35;0.80;;;0.70;;
10537;SDS011;5317;49.048;8.468;2022-12-31T14:32:10;1.73;;;0.90;;
10537;SDS011;5317;49.048;8.468;2022-12-31T14:34:59;2.20;;;1.30;;
10537;SDS011;5317;49.048;8.468;2022-12-31T14:37:45;1.13;;;1.03;;
10537;SDS011;5317;49.048;8.468;2022-12-31T14:40:22;1.37;;;1.13;;
10537;SDS011;5317;49.048;8.468;2022-12-31T14:42:55;1.40;;;1.30;;
10537;SDS011;5317;49.048;8.468;2022-12-31T14:45:38;1.43;;;1.33;;
10537;SDS011;5317;49.048;8.468;2022-12-31T14:48:17;2.53;;;1.30;;
10537;SDS011;5317;49.048;8.468;2022-12-31T14:50:52;0.97;;;0.90;;
10537;SDS011;5317;49.048;8.468;2022-12-31T14:53:20;1.93;;;1.10;;
10537;SDS011;5317;49.048;8.468;2022-12-31T14:55:59;1.33;;;1.10;;
10537;SDS011;5317;49.048;8.468;2022-12-31T14:58:31;1.13;;;1.03;;
10537;SDS011;5317;49.048;8.468;2022-12-31T15:01:17;1.10;;;0.80;;
10537;SDS011;5317;49.048;8.468;2022-12-31T15:03:46;0.90;;;0.90;;
10537;SDS011;5317;49.048;8.468;2022-12-31T15:09:05;1.17;;;1.07;;
10537;SDS011;5317;49.048;8.468;2022-12-31T15:11:47;0.80;;;0.80;;
10537;SDS011;5317;49.048;8.468;2022-12-31T15:14:37;1.43;;;1.07;;
10537;SDS011;5317;49.048;8.468;2022-12-31T15:17:23;1.40;;;1.13;;
10537;SDS011;5317;49.048;8.468;2022-12-31T15:22:55;1.77;;;1.10;;
10537;SDS011;5317;49.048;8.468;2022-12-31T15:25:29;0.90;;;0.90;;
10537;SDS011;5317;49.048;8.468;2022-12-31T15:27:59;1.17;;;1.03;;
10537;SDS011;5317;49.048;8.468;2022-12-31T15:30:37;1.27;;;1.10;;
10537;SDS011;5317;49.048;8.468;2022-12-31T15:33:14;1.20;;;1.10;;
10537;SDS011;5317;49.048;8.468;2022-12-31T15:35:46;1.00;;;0.70;;
10537;SDS011;5317;49.048;8.468;2022-12-31T15:38:28;0.90;;;0.90;;
10537;SDS011;5317;49.048;8.468;2022-12-31T15:40:57;0.77;;;0.77;;
10537;SDS011;5317;49.048;8.468;2022-12-31T15:43:28;0.93;;;0.90;;
10537;SDS011;5317;49.048;8.468;2022-12-31T15:46:06;1.47;;;1.30;;
10537;SDS011;5317;49.048;8.468;2022-12-31T15:48:40;1.20;;;1.10;;
10537;SDS011;5317;49.048;8.468;2022-12-31T15:51:14;1.30;;;1.20;;
10537;SDS011;5317;49.048;8.468;2022-12-31T15:53:45;1.77;;;1.53;;
10537;SDS011;5317;49.048;8.468;2022-12-31T15:56:17;1.30;;;1.20;;
10537;SDS011;5317;49.048;8.468;2022-12-31T15:58:47;1.30;;;1.10;;
10537;SDS011;5317;49.048;8.468;2022-12-31T16:01:23;1.23;;;1.13;;
10537;SDS011;5317;49.048;8.468;2022-12-31T16:03:54;2.57;;;2.10;;
10537;SDS011;5317;49.048;8.468;2022-12-31T16:06:23;3.13;;;2.90;;
10537;SDS011;5317;49.048;8.468;2022-12-31T16:08:52;3.03;;;2.37;;
10537;SDS011;5317;49.048;8.468;2022-12-31T16:11:20;1.87;;;1.77;;
10537;SDS011;5317;49.048;8.468;2022-12-31T16:13:51;3.27;;;1.93;;
10537;SDS011;5317;49.048;8.468;2022-12-31T16:16:21;2.00;;;1.80;;
10537;SDS011;5317;49.048;8.468;2022-12-31T16:18:49;2.27;;;1.20;;
10537;SDS011;5317;49.048;8.468;2022-12-31T16:21:24;4.57;;;4.17;;
10537;SDS011;5317;49.048;8.468;2022-12-31T16:23:53;5.67;;;5.27;;